createdAt,value
2019-05-05T00:01:06.598Z,27.23
2019-05-05T00:03:51.703Z,30.37
2019-05-05T00:06:24.969Z,36.77
2019-05-05T00:08:56.585Z,37.00
2019-05-05T00:11:28.106Z,32.27
2019-05-05T00:14:04.575Z,28.17
2019-05-05T00:16:41.929Z,31.83
2019-05-05T00:19:23.226Z,20.07
2019-05-05T00:21:47.289Z,20.00
2019-05-05T00:24:19.128Z,18.47
2019-05-05T00:26:50.862Z,26.37
2019-05-05T00:29:25.339Z,21.77
2019-05-05T00:31:57.478Z,23.67
2019-05-05T00:34:29.211Z,22.63
2019-05-05T00:37:04.443Z,18.37
2019-05-05T00:39:35.446Z,25.80
2019-05-05T00:42:07.344Z,27.87
2019-05-05T00:44:38.976Z,26.13
2019-05-05T00:47:18.021Z,22.80
2019-05-05T00:49:51.202Z,23.37
2019-05-05T00:52:24.530Z,22.30
2019-05-05T00:54:57.435Z,20.20
2019-05-05T00:57:29.162Z,20.27
2019-05-05T01:00:02.401Z,20.67
2019-05-05T01:02:40.277Z,25.10
2019-05-05T01:05:14.967Z,24.73
2019-05-05T01:07:46.669Z,24.60
2019-05-05T01:10:19.180Z,22.60
2019-05-05T01:12:50.819Z,23.47
2019-05-05T01:15:22.658Z,23.43
2019-05-05T01:17:55.320Z,24.53
2019-05-05T01:20:28.763Z,27.50
2019-05-05T01:23:00.601Z,27.00
2019-05-05T01:25:34.600Z,23.60
2019-05-05T01:28:06.814Z,20.37
2019-05-05T01:30:40.280Z,22.53
2019-05-05T01:33:16.258Z,18.70
2019-05-05T01:35:47.999Z,21.67
2019-05-05T01:38:21.368Z,18.37
2019-05-05T01:41:04.110Z,20.73
2019-05-05T01:43:35.515Z,19.47
2019-05-05T01:46:07.416Z,22.30
2019-05-05T01:48:39.050Z,19.23
2019-05-05T01:51:10.786Z,22.73
2019-05-05T01:53:44.291Z,22.77
2019-05-05T01:56:18.040Z,26.90
2019-05-05T01:58:50.717Z,30.77
2019-05-05T02:01:24.581Z,25.07
2019-05-05T02:03:56.045Z,26.63
2019-05-05T02:06:27.855Z,22.70
2019-05-05T02:08:59.595Z,25.93
2019-05-05T02:11:31.328Z,21.23
2019-05-05T02:14:05.017Z,24.77
2019-05-05T02:16:36.390Z,23.47
2019-05-05T02:19:08.127Z,27.60
2019-05-05T02:21:39.851Z,24.37
2019-05-05T02:24:11.754Z,24.87
2019-05-05T02:26:47.336Z,25.53
2019-05-05T02:29:35.214Z,20.40
2019-05-05T02:32:25.761Z,25.80
2019-05-05T02:34:59.335Z,25.97
2019-05-05T02:37:31.345Z,25.83
2019-05-05T02:40:07.392Z,20.97
2019-05-05T02:42:37.279Z,22.87
2019-05-05T02:45:11.468Z,22.67
2019-05-05T02:47:49.870Z,22.87
2019-05-05T02:50:24.957Z,22.80
2019-05-05T02:52:57.583Z,24.87
2019-05-05T02:55:32.790Z,21.73
2019-05-05T02:58:05.299Z,19.33
2019-05-05T03:00:39.658Z,15.57
2019-05-05T03:03:13.377Z,16.07
2019-05-05T03:05:44.612Z,21.97
2019-05-05T03:08:16.349Z,23.07
2019-05-05T03:10:48.409Z,23.23
2019-05-05T03:13:21.989Z,23.13
2019-05-05T03:16:21.293Z,22.13
2019-05-05T03:18:56.259Z,18.47
2019-05-05T03:21:28.328Z,19.73
2019-05-05T03:24:00.431Z,22.90
2019-05-05T03:26:34.018Z,17.43
2019-05-05T03:29:10.607Z,19.13
2019-05-05T03:31:45.714Z,21.60
2019-05-05T03:34:17.426Z,20.77
2019-05-05T03:36:49.852Z,19.13
2019-05-05T03:39:26.708Z,21.73
2019-05-05T03:42:09.662Z,20.67
2019-05-05T03:44:44.092Z,19.50
2019-05-05T03:47:15.957Z,17.13
2019-05-05T03:49:47.789Z,18.47
2019-05-05T03:52:20.161Z,19.57
2019-05-05T03:54:54.197Z,14.17
2019-05-05T03:57:25.560Z,18.60
2019-05-05T03:59:58.462Z,15.07
2019-05-05T04:02:49.632Z,14.87
2019-05-05T04:05:23.564Z,22.70
2019-05-05T04:07:56.236Z,17.30
2019-05-05T04:10:28.467Z,14.50
2019-05-05T04:13:01.228Z,16.23
2019-05-05T04:15:36.570Z,16.23
2019-05-05T04:18:09.835Z,16.43
2019-05-05T04:20:41.454Z,15.43
2019-05-05T04:23:14.170Z,13.93
2019-05-05T04:25:45.894Z,13.60
2019-05-05T04:28:17.615Z,12.03
2019-05-05T04:30:49.447Z,16.43
2019-05-05T04:33:21.170Z,14.93
2019-05-05T04:35:54.504Z,20.37
2019-05-05T04:38:26.227Z,24.03
2019-05-05T04:40:57.947Z,25.50
2019-05-05T04:43:29.777Z,20.73
2019-05-05T04:46:01.501Z,16.63
2019-05-05T04:48:37.522Z,17.23
2019-05-05T04:51:14.436Z,15.33
2019-05-05T04:54:05.231Z,14.43
2019-05-05T04:56:36.932Z,13.33
2019-05-05T04:59:08.550Z,9.73
2019-05-05T05:01:40.447Z,11.10
2019-05-05T05:04:25.651Z,9.33
2019-05-05T05:07:01.699Z,8.60
2019-05-05T05:09:34.220Z,9.93
2019-05-05T05:12:06.111Z,9.93
2019-05-05T05:14:37.846Z,11.13
2019-05-05T05:17:11.216Z,8.93
2019-05-05T05:19:43.695Z,5.97
2019-05-05T05:22:15.849Z,6.93
2019-05-05T05:24:47.675Z,6.60
2019-05-05T05:27:19.403Z,8.80
2019-05-05T05:29:51.133Z,6.03
2019-05-05T05:32:24.697Z,6.97
2019-05-05T05:34:57.687Z,8.07
2019-05-05T05:37:29.487Z,9.37
2019-05-05T05:40:05.989Z,5.43
2019-05-05T05:42:37.619Z,6.93
2019-05-05T05:45:09.292Z,6.20
2019-05-05T05:47:58.953Z,6.93
2019-05-05T05:50:38.051Z,4.17
2019-05-05T05:53:09.881Z,7.00
2019-05-05T05:55:41.609Z,6.57
2019-05-05T05:58:14.069Z,3.70
2019-05-05T06:00:46.001Z,4.73
2019-05-05T06:03:17.834Z,4.33
2019-05-05T06:05:49.581Z,3.80
2019-05-05T06:08:24.332Z,5.97
2019-05-05T06:10:57.136Z,5.70
2019-05-05T06:13:28.869Z,3.70
2019-05-05T06:16:00.599Z,4.50
2019-05-05T06:18:34.355Z,5.17
2019-05-05T06:21:06.047Z,3.63
2019-05-05T06:23:37.789Z,6.30
2019-05-05T06:26:09.531Z,3.63
2019-05-05T06:28:44.734Z,4.93
2019-05-05T06:31:16.745Z,2.80
2019-05-05T06:33:48.474Z,3.83
2019-05-05T06:36:26.797Z,4.00
2019-05-05T06:38:58.514Z,6.50
2019-05-05T06:41:31.798Z,3.47
2019-05-05T06:44:07.875Z,4.30
2019-05-05T06:46:44.486Z,3.70
2019-05-05T06:49:15.921Z,3.40
2019-05-05T06:51:47.652Z,4.17
2019-05-05T06:54:19.382Z,3.33
2019-05-05T06:56:51.134Z,4.23
2019-05-05T06:59:24.292Z,4.73
2019-05-05T07:02:04.262Z,3.80
2019-05-05T07:04:46.076Z,2.67
2019-05-05T07:07:27.753Z,3.17
2019-05-05T07:09:59.489Z,3.23
2019-05-05T07:12:31.529Z,3.77
2019-05-05T07:15:09.912Z,2.93
2019-05-05T07:17:41.671Z,2.30
2019-05-05T07:20:16.562Z,2.53
2019-05-05T07:22:58.701Z,4.03
2019-05-05T07:25:21.715Z,1.77
2019-05-05T07:27:54.743Z,3.37
2019-05-05T07:30:33.593Z,2.13
2019-05-05T07:33:07.455Z,2.57
2019-05-05T07:35:55.029Z,1.57
2019-05-05T07:38:21.636Z,3.23
2019-05-05T07:41:06.402Z,1.40
2019-05-05T07:43:43.767Z,5.47
2019-05-05T07:46:20.252Z,2.77
2019-05-05T07:48:54.344Z,3.57
2019-05-05T07:51:25.666Z,2.47
2019-05-05T07:54:00.971Z,4.20
2019-05-05T07:56:34.375Z,9.33
2019-05-05T07:59:14.404Z,13.83
2019-05-05T08:01:46.753Z,1.83
2019-05-05T08:04:24.225Z,18.83
2019-05-05T08:07:00.846Z,7.67
2019-05-05T08:09:35.058Z,2.30
2019-05-05T08:12:13.549Z,3.47
2019-05-05T08:14:45.741Z,4.67
2019-05-05T08:17:20.556Z,14.30
2019-05-05T08:19:58.278Z,5.10
2019-05-05T08:22:41.740Z,2.23
2019-05-05T08:25:36.275Z,8.20
2019-05-05T08:28:04.356Z,3.00
2019-05-05T08:30:55.534Z,4.77
2019-05-05T08:33:27.435Z,3.50
2019-05-05T08:35:59.262Z,1.23
2019-05-05T08:38:31.017Z,1.77
2019-05-05T08:41:04.641Z,1.53
2019-05-05T08:43:36.429Z,3.40
2019-05-05T08:46:09.683Z,3.40
2019-05-05T08:48:41.411Z,3.13
2019-05-05T08:51:14.136Z,3.00
2019-05-05T08:53:48.388Z,1.57
2019-05-05T08:56:19.270Z,1.93
2019-05-05T08:58:50.899Z,4.90
2019-05-05T09:01:23.785Z,2.40
2019-05-05T09:03:56.525Z,2.17
2019-05-05T09:06:28.373Z,2.67
2019-05-05T09:09:00.105Z,2.43
2019-05-05T09:11:31.848Z,5.10
2019-05-05T09:14:04.159Z,2.13
2019-05-05T09:16:36.027Z,3.13
2019-05-05T09:19:09.392Z,2.80
2019-05-05T09:21:41.036Z,2.10
2019-05-05T09:24:20.601Z,15.83
2019-05-05T09:26:59.595Z,1.57
2019-05-05T09:29:34.740Z,13.17
2019-05-05T09:32:06.912Z,11.67
2019-05-05T09:34:38.559Z,5.47
2019-05-05T09:37:10.298Z,2.10
2019-05-05T09:39:43.719Z,5.13
2019-05-05T09:42:15.373Z,5.80
2019-05-05T09:44:47.111Z,7.93
2019-05-05T09:47:18.864Z,3.23
2019-05-05T09:49:54.958Z,2.50
2019-05-05T09:52:30.103Z,2.13
2019-05-05T09:55:11.248Z,3.37
2019-05-05T09:57:43.778Z,2.37
2019-05-05T10:00:16.251Z,6.23
2019-05-05T10:02:49.756Z,2.67
2019-05-05T10:05:23.619Z,3.23
2019-05-05T10:07:55.507Z,3.33
2019-05-05T10:10:28.826Z,2.27
2019-05-05T10:13:00.456Z,25.80
2019-05-05T10:15:32.191Z,4.13
2019-05-05T10:18:04.972Z,3.57
2019-05-05T10:20:36.849Z,1.57
2019-05-05T10:23:09.987Z,1.23
2019-05-05T10:25:46.083Z,2.63
2019-05-05T10:28:18.703Z,4.60
2019-05-05T10:30:50.230Z,3.43
2019-05-05T10:33:21.959Z,1.33
2019-05-05T10:35:58.264Z,2.67
2019-05-05T10:38:29.974Z,3.77
2019-05-05T10:41:04.209Z,2.30
2019-05-05T10:43:37.016Z,2.33
2019-05-05T10:46:08.649Z,3.53
2019-05-05T10:48:41.031Z,2.43
2019-05-05T10:51:14.394Z,4.30
2019-05-05T10:53:46.990Z,1.93
2019-05-05T10:56:18.742Z,1.50
2019-05-05T10:58:51.970Z,1.17
2019-05-05T11:01:38.149Z,11.53
2019-05-05T11:04:40.324Z,3.50
2019-05-05T11:07:14.351Z,2.40
2019-05-05T11:09:46.387Z,1.40
2019-05-05T11:12:24.667Z,2.47
2019-05-05T11:14:56.311Z,2.37
2019-05-05T11:17:33.846Z,3.43
2019-05-05T11:20:14.417Z,2.00
2019-05-05T11:22:48.285Z,18.40
2019-05-05T11:25:24.287Z,3.50
2019-05-05T11:28:00.805Z,3.63
2019-05-05T11:30:41.819Z,2.23
2019-05-05T11:33:34.268Z,2.37
2019-05-05T11:36:06.931Z,1.33
2019-05-05T11:38:41.611Z,1.30
2019-05-05T11:41:14.429Z,2.37
2019-05-05T11:43:46.621Z,1.47
2019-05-05T11:46:24.919Z,1.27
2019-05-05T11:48:57.711Z,1.13
2019-05-05T11:51:34.270Z,23.67
2019-05-05T11:54:10.788Z,1.83
2019-05-05T11:56:44.718Z,6.93
2019-05-05T11:59:16.897Z,0.97
2019-05-05T12:01:54.694Z,21.93
2019-05-05T12:04:33.237Z,4.03
2019-05-05T12:07:08.891Z,3.67
2019-05-05T12:09:44.390Z,2.57
2019-05-05T12:12:19.448Z,3.13
2019-05-05T12:14:54.076Z,1.03
2019-05-05T12:17:36.064Z,1.83
2019-05-05T12:20:19.171Z,2.60
2019-05-05T12:22:56.434Z,2.03
2019-05-05T12:25:48.316Z,2.57
2019-05-05T12:28:34.652Z,2.20
2019-05-05T12:31:24.880Z,1.63
2019-05-05T12:34:04.106Z,2.97
2019-05-05T12:36:49.835Z,3.13
2019-05-05T12:39:37.748Z,1.10
2019-05-05T12:42:14.071Z,2.17
2019-05-05T12:44:49.408Z,1.73
2019-05-05T12:47:39.306Z,1.97
2019-05-05T12:50:18.360Z,3.37
2019-05-05T12:52:54.889Z,3.53
2019-05-05T18:42:00.713Z,69.20
2019-05-05T18:44:44.383Z,119.73
2019-05-05T18:47:25.019Z,24.27
2019-05-05T18:50:04.000Z,54.00
2019-05-05T18:52:38.022Z,54.70
2019-05-05T18:55:11.207Z,31.43
2019-05-05T18:57:43.493Z,12.57
2019-05-05T19:00:19.237Z,29.83
2019-05-05T19:02:53.585Z,58.83
2019-05-05T19:05:25.318Z,16.53
2019-05-05T19:08:07.828Z,31.27
2019-05-05T19:10:43.439Z,19.50
2019-05-05T19:13:17.328Z,13.00
2019-05-05T19:15:50.195Z,28.87
2019-05-05T19:18:24.787Z,56.20
2019-05-05T19:21:00.681Z,39.37
2019-05-05T19:23:35.531Z,24.63
2019-05-05T19:26:08.531Z,34.73
2019-05-05T19:28:50.143Z,46.37
2019-05-05T19:34:05.561Z,35.80
2019-05-05T19:36:45.046Z,48.17
2019-05-05T19:39:18.234Z,78.80
2019-05-05T19:41:54.323Z,55.63
2019-05-05T19:44:27.263Z,44.67
2019-05-05T19:47:05.884Z,45.80
2019-05-05T19:49:39.196Z,55.83
2019-05-05T19:52:13.430Z,24.30
2019-05-05T19:54:47.428Z,52.47
2019-05-05T19:57:18.554Z,20.97
2019-05-05T19:59:51.870Z,24.33
2019-05-05T20:02:26.123Z,20.60
2019-05-05T20:04:57.788Z,25.37
2019-05-05T20:07:29.603Z,18.50
2019-05-05T20:10:01.371Z,15.80
2019-05-05T20:12:33.521Z,24.13
2019-05-05T20:15:09.315Z,26.87
2019-05-05T20:17:41.099Z,26.10
2019-05-05T20:20:13.984Z,33.70
2019-05-05T20:22:45.805Z,24.43
2019-05-05T20:25:20.624Z,20.80
2019-05-05T20:27:56.037Z,14.83
2019-05-05T20:30:27.748Z,18.23
2019-05-05T20:33:04.035Z,17.97
2019-05-05T20:35:43.192Z,17.13
2019-05-05T20:38:33.265Z,17.93
2019-05-05T20:41:14.202Z,14.90
2019-05-05T20:43:46.895Z,13.60
2019-05-05T20:46:19.911Z,14.47
2019-05-05T20:48:54.630Z,22.67
2019-05-05T20:51:26.732Z,17.40
2019-05-05T20:53:59.024Z,20.67
2019-05-05T20:56:33.829Z,21.73
2019-05-05T20:59:06.395Z,16.53
2019-05-05T21:01:39.659Z,18.13
2019-05-05T21:04:14.187Z,19.67
2019-05-05T21:06:49.329Z,15.53
2019-05-05T21:09:21.545Z,13.77
2019-05-05T21:11:58.404Z,11.33
2019-05-05T21:14:34.401Z,16.27
2019-05-05T21:17:05.176Z,12.03
2019-05-05T21:19:39.413Z,11.20
2019-05-05T21:22:33.909Z,16.30
2019-05-05T21:25:27.108Z,14.23
2019-05-05T21:28:08.046Z,14.77
2019-05-05T21:30:41.649Z,10.67
2019-05-05T21:33:16.317Z,10.53
2019-05-05T21:35:51.381Z,24.57
2019-05-05T21:38:23.031Z,12.57
2019-05-05T21:41:00.433Z,16.20
2019-05-05T21:43:32.325Z,17.63
2019-05-05T21:46:04.520Z,14.83
2019-05-05T21:48:36.196Z,11.70
2019-05-05T21:51:09.567Z,15.47
2019-05-05T21:53:46.936Z,12.43
2019-05-05T21:56:36.147Z,12.37
2019-05-05T21:59:07.806Z,13.50
2019-05-05T22:01:40.985Z,16.10
2019-05-05T22:04:14.986Z,13.57
2019-05-05T22:06:46.461Z,12.73
2019-05-05T22:09:18.209Z,13.50
2019-05-05T22:11:49.940Z,13.30
2019-05-05T22:14:21.784Z,15.87
2019-05-05T22:16:54.370Z,16.60
2019-05-05T22:19:27.850Z,16.67
2019-05-05T22:22:03.984Z,15.93
2019-05-05T22:24:36.132Z,16.23
2019-05-05T22:27:07.883Z,16.60
2019-05-05T22:29:39.623Z,15.67
2019-05-05T22:32:13.905Z,16.63
2019-05-05T22:34:45.353Z,23.47
2019-05-05T22:37:17.086Z,63.97
2019-05-05T22:39:48.846Z,58.53
2019-05-05T22:42:20.606Z,52.47
2019-05-05T22:44:52.339Z,80.37
2019-05-05T22:47:24.187Z,85.93
2019-05-05T22:49:55.918Z,92.10
2019-05-05T22:52:27.656Z,71.93
2019-05-05T22:54:59.410Z,62.60
2019-05-05T22:57:31.161Z,61.50
2019-05-05T23:00:03.794Z,37.50
2019-05-05T23:02:48.103Z,74.63
2019-05-05T23:05:24.307Z,27.30
2019-05-05T23:07:56.039Z,54.63
2019-05-05T23:10:29.287Z,149.43
2019-05-05T23:13:01.220Z,175.10
2019-05-05T23:15:34.804Z,184.13
2019-05-05T23:18:12.025Z,164.50
2019-05-05T23:21:03.846Z,177.30
2019-05-05T23:23:44.426Z,199.77
2019-05-05T23:26:35.687Z,194.13
2019-05-05T23:29:06.607Z,113.70
2019-05-05T23:31:38.353Z,105.33
2019-05-05T23:34:10.079Z,173.77
2019-05-05T23:36:41.927Z,186.77
2019-05-05T23:39:13.689Z,183.80
2019-05-05T23:41:45.401Z,153.57
2019-05-05T23:44:17.143Z,128.60
2019-05-05T23:46:48.884Z,117.23
2019-05-05T23:49:20.713Z,85.60
2019-05-05T23:51:54.013Z,84.30
2019-05-05T23:54:26.322Z,66.23
2019-05-05T23:56:58.063Z,64.93
2019-05-05T23:59:29.892Z,61.83
